createdAt,value
2022-11-25T00:06:34.726Z,11.50
2022-11-25T00:09:04.920Z,8.88
2022-11-25T00:11:35.481Z,14.98
2022-11-25T00:14:02.649Z,10.10
2022-11-25T00:16:31.044Z,11.48
2022-11-25T00:18:59.319Z,12.60
2022-11-25T00:21:30.110Z,11.02
2022-11-25T00:24:00.321Z,11.23
2022-11-25T00:26:28.993Z,4.72
2022-11-25T00:28:59.377Z,10.02
2022-11-25T00:31:29.167Z,17.00
2022-11-25T00:33:56.723Z,11.55
2022-11-25T00:36:42.110Z,9.20
2022-11-25T00:39:14.694Z,9.18
2022-11-25T00:42:01.121Z,8.75
2022-11-25T00:44:38.153Z,11.88
2022-11-25T00:47:10.901Z,9.48
2022-11-25T00:49:40.285Z,10.32
2022-11-25T00:52:08.813Z,10.93
2022-11-25T00:54:36.158Z,11.48
2022-11-25T00:57:03.629Z,11.82
2022-11-25T00:59:30.802Z,10.43
2022-11-25T01:01:59.985Z,11.52
2022-11-25T01:04:27.211Z,10.15
2022-11-25T01:06:57.076Z,9.30
2022-11-25T01:09:24.215Z,9.38
2022-11-25T01:11:54.823Z,14.18
2022-11-25T01:14:22.949Z,12.20
2022-11-25T01:16:52.831Z,8.68
2022-11-25T01:19:20.377Z,9.32
2022-11-25T01:21:47.482Z,14.60
2022-11-25T01:24:15.865Z,12.38
2022-11-25T01:26:44.319Z,11.18
2022-11-25T01:29:17.484Z,12.88
2022-11-25T01:31:45.742Z,16.05
2022-11-25T01:34:24.971Z,13.73
2022-11-25T01:36:52.375Z,18.13
2022-11-25T01:39:30.465Z,11.10
2022-11-25T01:41:59.685Z,14.88
2022-11-25T01:44:31.527Z,14.80
2022-11-25T01:47:18.710Z,15.60
2022-11-25T01:49:51.514Z,11.65
2022-11-25T01:52:25.096Z,15.68
2022-11-25T01:55:15.976Z,15.77
2022-11-25T01:58:10.407Z,15.32
2022-11-25T02:00:39.385Z,12.23
2022-11-25T02:03:07.898Z,16.05
2022-11-25T02:05:38.181Z,14.18
2022-11-25T02:08:07.762Z,15.95
2022-11-25T02:10:39.109Z,16.88
2022-11-25T02:13:06.538Z,14.35
2022-11-25T02:15:37.119Z,15.88
2022-11-25T02:18:05.430Z,16.30
2022-11-25T02:20:32.715Z,15.57
2022-11-25T02:23:28.399Z,17.30
2022-11-25T02:25:56.165Z,12.48
2022-11-25T02:28:27.763Z,17.75
2022-11-25T02:30:55.586Z,14.38
2022-11-25T02:33:24.067Z,16.05
2022-11-25T02:35:56.339Z,13.43
2022-11-25T02:38:40.303Z,8.87
2022-11-25T02:41:19.919Z,8.15
2022-11-25T02:43:51.553Z,15.18
2022-11-25T02:46:23.578Z,11.60
2022-11-25T02:49:10.377Z,10.20
2022-11-25T02:51:41.334Z,11.80
2022-11-25T02:54:10.380Z,8.52
2022-11-25T02:56:38.468Z,9.98
2022-11-25T02:59:06.022Z,8.02
2022-11-25T03:01:35.199Z,8.73
2022-11-25T03:04:05.830Z,8.65
2022-11-25T03:06:33.190Z,8.77
2022-11-25T03:09:01.426Z,8.43
2022-11-25T03:11:47.093Z,6.38
2022-11-25T03:14:15.184Z,8.43
2022-11-25T03:16:44.013Z,11.95
2022-11-25T03:19:11.790Z,10.88
2022-11-25T03:21:39.023Z,8.43
2022-11-25T03:24:06.843Z,10.85
2022-11-25T03:26:34.115Z,7.88
2022-11-25T03:29:01.268Z,9.50
2022-11-25T03:31:28.694Z,13.40
2022-11-25T03:33:56.327Z,11.02
2022-11-25T03:36:23.640Z,14.40
2022-11-25T03:38:50.822Z,4.97
2022-11-25T03:41:18.345Z,8.23
2022-11-25T03:43:46.204Z,11.65
2022-11-25T03:46:13.727Z,10.55
2022-11-25T03:48:40.879Z,9.13
2022-11-25T03:51:08.531Z,10.68
2022-11-25T03:53:36.248Z,9.73
2022-11-25T03:56:06.317Z,11.90
2022-11-25T03:58:35.000Z,7.43
2022-11-25T04:01:04.879Z,13.02
2022-11-25T04:03:33.936Z,8.70
2022-11-25T04:06:01.212Z,10.38
2022-11-25T04:08:29.487Z,11.95
2022-11-25T04:10:57.932Z,13.75
2022-11-25T04:13:29.048Z,9.32
2022-11-25T04:15:57.755Z,8.43
2022-11-25T04:18:25.979Z,12.40
2022-11-25T04:20:56.118Z,8.32
2022-11-25T04:23:23.157Z,7.45
2022-11-25T04:26:08.348Z,13.60
2022-11-25T04:28:46.467Z,8.00
2022-11-25T04:31:13.901Z,11.65
2022-11-25T04:33:46.032Z,12.80
2022-11-25T04:36:17.419Z,11.70
2022-11-25T04:38:44.735Z,12.00
2022-11-25T04:41:12.453Z,11.13
2022-11-25T04:43:43.303Z,10.27
2022-11-25T04:46:23.011Z,12.95
2022-11-25T04:48:53.752Z,11.73
2022-11-25T04:51:26.817Z,10.25
2022-11-25T04:53:58.677Z,12.38
2022-11-25T04:56:26.337Z,9.90
2022-11-25T04:59:16.595Z,14.40
2022-11-25T05:01:46.969Z,11.57
2022-11-25T05:04:27.855Z,8.82
2022-11-25T05:06:57.081Z,10.50
2022-11-25T05:09:25.962Z,10.88
2022-11-25T05:12:26.126Z,10.88
2022-11-25T05:14:53.248Z,11.50
2022-11-25T05:17:24.834Z,14.20
2022-11-25T05:19:53.220Z,13.98
2022-11-25T05:22:26.469Z,17.15
2022-11-25T05:24:53.987Z,12.40
2022-11-25T05:27:22.276Z,18.73
2022-11-25T05:29:55.550Z,10.60
2022-11-25T05:32:24.168Z,21.27
2022-11-25T05:34:51.708Z,15.88
2022-11-25T05:37:23.973Z,18.35
2022-11-25T05:39:57.185Z,14.15
2022-11-25T05:42:31.147Z,18.40
2022-11-25T05:45:02.431Z,21.15
2022-11-25T05:47:32.499Z,18.35
2022-11-25T05:50:00.487Z,14.73
2022-11-25T05:52:27.505Z,20.50
2022-11-25T05:54:58.288Z,22.90
2022-11-25T05:57:26.677Z,20.20
2022-11-25T05:59:57.680Z,19.20
2022-11-25T06:02:42.270Z,16.70
2022-11-25T06:05:12.596Z,23.52
2022-11-25T06:07:39.963Z,20.70
2022-11-25T06:10:08.253Z,19.45
2022-11-25T06:12:38.441Z,15.68
2022-11-25T06:15:06.151Z,25.42
2022-11-25T06:17:35.106Z,18.70
2022-11-25T06:20:11.328Z,9.63
2022-11-25T06:22:38.413Z,23.88
2022-11-25T06:25:06.421Z,12.10
2022-11-25T06:28:04.622Z,18.77
2022-11-25T06:30:23.129Z,20.13
2022-11-25T06:33:03.667Z,24.83
2022-11-25T06:35:30.783Z,23.08
2022-11-25T06:38:02.066Z,22.13
2022-11-25T06:40:29.195Z,24.00
2022-11-25T06:42:56.338Z,30.85
2022-11-25T06:45:23.425Z,19.80
2022-11-25T06:47:50.417Z,32.67
2022-11-25T06:50:17.524Z,30.25
2022-11-25T06:52:44.559Z,25.88
2022-11-25T06:55:11.643Z,19.88
2022-11-25T06:57:39.801Z,33.83
2022-11-25T07:00:07.959Z,34.75
2022-11-25T07:02:41.697Z,21.40
2022-11-25T07:05:12.865Z,21.35
2022-11-25T07:07:39.965Z,13.68
2022-11-25T07:10:11.200Z,22.45
2022-11-25T07:15:09.310Z,33.92
2022-11-25T07:17:36.381Z,20.35
2022-11-25T07:20:03.722Z,24.33
2022-11-25T07:22:34.154Z,23.10
2022-11-25T07:25:01.411Z,27.48
2022-11-25T07:27:30.245Z,24.23
2022-11-25T07:30:41.101Z,24.33
2022-11-25T07:32:44.458Z,14.15
2022-11-25T07:35:17.109Z,27.63
2022-11-25T07:37:46.793Z,21.05
2022-11-25T07:40:17.669Z,17.95
2022-11-25T07:42:44.754Z,19.70
2022-11-25T07:45:11.757Z,25.30
2022-11-25T07:47:44.755Z,12.38
2022-11-25T07:50:12.121Z,21.25
2022-11-25T07:52:41.132Z,22.75
2022-11-25T07:55:08.603Z,24.08
2022-11-25T07:57:35.755Z,20.13
2022-11-25T08:00:03.261Z,16.60
2022-11-25T08:02:42.050Z,15.85
2022-11-25T08:05:12.661Z,18.65
2022-11-25T08:07:40.602Z,16.33
2022-11-25T08:10:08.044Z,14.95
2022-11-25T08:12:35.115Z,19.92
2022-11-25T08:15:02.141Z,21.95
2022-11-25T08:17:31.423Z,17.05
2022-11-25T08:19:58.952Z,19.55
2022-11-25T08:22:25.962Z,18.92
2022-11-25T08:24:52.951Z,21.80
2022-11-25T08:27:20.010Z,19.42
2022-11-25T08:29:47.066Z,13.00
2022-11-25T08:32:14.162Z,21.63
2022-11-25T08:34:43.966Z,13.07
2022-11-25T08:37:12.772Z,18.88
2022-11-25T08:39:56.852Z,25.15
2022-11-25T08:42:24.417Z,10.95
2022-11-25T08:44:57.791Z,22.33
2022-11-25T08:47:24.946Z,8.27
2022-11-25T08:49:55.515Z,17.25
2022-11-25T08:52:23.157Z,20.80
2022-11-25T08:54:50.848Z,16.63
2022-11-25T08:57:18.160Z,16.80
2022-11-25T08:59:45.440Z,13.77
2022-11-25T09:02:15.849Z,12.75
2022-11-25T09:04:43.037Z,16.13
2022-11-25T09:07:10.650Z,15.90
2022-11-25T09:09:40.451Z,11.27
2022-11-25T09:12:08.462Z,14.98
2022-11-25T09:14:38.933Z,19.73
2022-11-25T09:17:13.429Z,18.40
2022-11-25T09:19:40.473Z,20.75
2022-11-25T09:22:08.362Z,15.55
2022-11-25T09:24:36.463Z,16.35
2022-11-25T09:27:06.445Z,14.48
2022-11-25T09:29:36.552Z,14.75
2022-11-25T09:32:06.366Z,14.20
2022-11-25T09:34:36.075Z,11.63
2022-11-25T09:37:03.386Z,11.13
2022-11-25T09:39:35.740Z,17.77
2022-11-25T09:42:37.355Z,12.70
2022-11-25T09:45:41.231Z,12.20
2022-11-25T09:48:34.751Z,11.38
2022-11-25T09:54:23.750Z,9.52
2022-11-25T09:57:00.864Z,11.75
2022-11-25T09:59:54.080Z,7.75
2022-11-25T10:02:35.426Z,13.48
2022-11-25T10:05:25.478Z,11.73
2022-11-25T10:08:05.274Z,7.78
2022-11-25T10:10:53.722Z,11.35
2022-11-25T10:13:32.167Z,14.07
2022-11-25T10:16:05.309Z,12.57
2022-11-25T10:21:11.709Z,13.23
2022-11-25T10:23:40.045Z,9.73
2022-11-25T10:26:25.613Z,11.25
2022-11-25T10:29:11.622Z,9.85
2022-11-25T10:31:40.089Z,9.95
2022-11-25T10:34:21.665Z,11.50
2022-11-25T10:36:50.634Z,11.18
2022-11-25T10:39:31.926Z,9.13
2022-11-25T10:42:07.234Z,10.98
2022-11-25T10:44:39.898Z,12.18
2022-11-25T10:47:29.468Z,12.45
2022-11-25T10:50:14.688Z,9.85
2022-11-25T10:52:49.098Z,8.07
2022-11-25T10:55:26.382Z,12.73
2022-11-25T10:57:54.310Z,13.85
2022-11-25T11:00:30.516Z,9.95
2022-11-25T11:02:58.937Z,13.18
2022-11-25T11:05:29.880Z,10.63
2022-11-25T11:08:22.141Z,6.80
2022-11-25T11:11:09.373Z,11.88
2022-11-25T11:13:36.572Z,6.45
2022-11-25T11:16:04.289Z,13.02
2022-11-25T11:18:37.528Z,10.38
2022-11-25T11:23:50.947Z,7.55
2022-11-25T11:26:31.459Z,10.23
2022-11-25T11:29:12.723Z,9.25
2022-11-25T11:31:48.648Z,10.57
2022-11-25T11:34:38.067Z,10.50
2022-11-25T11:37:17.929Z,11.68
2022-11-25T11:40:00.848Z,9.48
2022-11-25T11:42:54.149Z,10.15
2022-11-25T11:45:26.627Z,13.32
2022-11-25T11:48:10.447Z,6.57
2022-11-25T11:51:07.055Z,11.63
2022-11-25T11:53:52.800Z,14.05
2022-11-25T11:56:40.941Z,5.40
2022-11-25T11:59:33.643Z,10.07
2022-11-25T12:02:22.496Z,12.10
2022-11-25T12:05:04.579Z,7.47
2022-11-25T12:07:44.085Z,11.88
2022-11-25T12:10:14.197Z,8.73
2022-11-25T12:12:49.244Z,8.55
2022-11-25T12:15:26.945Z,10.38
2022-11-25T12:18:03.311Z,9.45
2022-11-25T12:20:55.226Z,10.05
2022-11-25T12:23:49.200Z,5.05
2022-11-25T12:29:09.687Z,9.18
2022-11-25T12:31:47.618Z,9.85
2022-11-25T12:35:17.931Z,7.05
2022-11-25T12:38:03.946Z,8.52
2022-11-25T12:41:07.988Z,9.70
2022-11-25T12:43:44.103Z,7.55
2022-11-25T12:46:27.137Z,9.35
2022-11-25T12:49:04.527Z,8.73
2022-11-25T12:51:52.438Z,8.30
2022-11-25T12:54:42.794Z,9.15
2022-11-25T12:57:54.032Z,6.35
2022-11-25T13:00:41.456Z,7.70
2022-11-25T13:03:27.133Z,9.32
2022-11-25T13:06:55.944Z,6.97
2022-11-25T13:09:47.290Z,9.10
2022-11-25T13:12:32.911Z,8.10
2022-11-25T13:18:50.765Z,9.68
2022-11-25T13:21:19.299Z,10.93
2022-11-25T13:23:56.466Z,9.82
2022-11-25T13:26:32.033Z,11.05
2022-11-25T13:29:14.438Z,10.57
2022-11-25T13:31:59.522Z,5.82
2022-11-25T13:34:32.515Z,8.15
2022-11-25T13:37:02.115Z,7.75
2022-11-25T13:39:29.102Z,6.90
2022-11-25T13:41:59.738Z,7.30
2022-11-25T13:44:52.275Z,7.20
2022-11-25T13:47:25.277Z,10.07
2022-11-25T13:49:57.973Z,7.18
2022-11-25T13:52:59.824Z,9.25
2022-11-25T13:55:34.427Z,9.70
2022-11-25T13:58:10.542Z,7.43
2022-11-25T14:00:48.960Z,7.20
2022-11-25T14:03:18.800Z,4.63
2022-11-25T14:06:07.444Z,7.90
2022-11-25T14:08:58.550Z,9.23
2022-11-25T14:11:39.557Z,8.50
2022-11-25T14:14:33.658Z,5.72
2022-11-25T14:17:40.636Z,7.53
2022-11-25T14:20:16.887Z,8.68
2022-11-25T14:23:02.550Z,6.47
2022-11-25T14:25:46.320Z,9.38
2022-11-25T14:28:13.341Z,7.10
2022-11-25T14:30:53.194Z,8.57
2022-11-25T14:33:52.248Z,7.30
2022-11-25T14:36:28.004Z,8.32
2022-11-25T14:39:02.294Z,9.77
2022-11-25T14:41:38.551Z,6.97
2022-11-25T14:44:11.737Z,10.15
2022-11-25T14:47:07.963Z,8.88
2022-11-25T14:49:51.967Z,10.65
2022-11-25T14:52:34.729Z,10.30
2022-11-25T14:55:04.545Z,11.82
2022-11-25T14:57:38.413Z,6.95
2022-11-25T15:00:15.588Z,10.30
2022-11-25T15:02:57.047Z,10.05
2022-11-25T15:05:33.417Z,7.07
2022-11-25T15:08:09.689Z,9.27
2022-11-25T15:10:59.418Z,9.02
2022-11-25T15:14:00.237Z,10.63
2022-11-25T15:16:37.042Z,14.23
2022-11-25T15:19:17.699Z,9.88
2022-11-25T15:22:14.995Z,10.02
2022-11-25T15:24:42.138Z,11.43
2022-11-25T15:27:18.550Z,7.03
2022-11-25T15:29:47.775Z,5.55
2022-11-25T15:32:38.529Z,9.10
2022-11-25T15:35:16.413Z,7.75
2022-11-25T15:37:48.462Z,8.95
2022-11-25T15:40:43.253Z,6.63
2022-11-25T15:43:42.908Z,8.27
2022-11-25T15:46:11.339Z,8.40
2022-11-25T15:48:50.472Z,8.52
2022-11-25T15:51:49.707Z,7.38
2022-11-25T15:54:46.331Z,5.75
2022-11-25T15:57:29.365Z,5.50
2022-11-25T16:00:00.947Z,7.97
2022-11-25T16:02:42.384Z,5.63
2022-11-25T16:05:12.513Z,5.03
2022-11-25T16:07:52.916Z,11.07
2022-11-25T16:10:31.732Z,6.30
2022-11-25T16:13:22.759Z,5.30
2022-11-25T16:16:15.298Z,7.50
2022-11-25T16:19:18.478Z,5.30
2022-11-25T16:22:01.094Z,7.78
2022-11-25T16:25:03.282Z,5.80
2022-11-25T16:27:31.658Z,7.88
2022-11-25T16:30:19.960Z,7.78
2022-11-25T16:32:48.307Z,5.40
2022-11-25T16:35:19.554Z,9.73
2022-11-25T16:37:49.200Z,6.63
2022-11-25T16:40:18.179Z,6.18
2022-11-25T16:42:50.215Z,4.68
2022-11-25T16:45:28.087Z,7.50
2022-11-25T16:47:55.753Z,6.22
2022-11-25T16:50:23.382Z,10.20
2022-11-25T16:52:50.650Z,8.27
2022-11-25T16:55:18.764Z,8.52
2022-11-25T16:57:46.451Z,6.65
2022-11-25T17:00:17.194Z,6.13
2022-11-25T17:02:47.022Z,8.63
2022-11-25T17:05:23.280Z,6.30
2022-11-25T17:07:51.204Z,9.93
2022-11-25T17:10:20.098Z,10.65
2022-11-25T17:12:50.920Z,9.40
2022-11-25T17:15:30.335Z,10.07
2022-11-25T17:18:02.655Z,7.78
2022-11-25T17:20:29.890Z,6.15
2022-11-25T17:22:58.190Z,8.18
2022-11-25T17:25:32.388Z,8.18
2022-11-25T17:28:06.204Z,6.57
2022-11-25T17:30:42.079Z,6.13
2022-11-25T17:33:22.549Z,7.50
2022-11-25T17:35:52.761Z,8.30
2022-11-25T17:38:21.387Z,7.97
2022-11-25T17:40:53.570Z,10.55
2022-11-25T17:43:37.136Z,6.60
2022-11-25T17:46:11.037Z,7.25
2022-11-25T17:48:42.560Z,9.10
2022-11-25T17:51:14.678Z,8.77
2022-11-25T17:53:45.025Z,4.88
2022-11-25T17:56:31.202Z,6.72
2022-11-25T17:59:03.980Z,8.73
2022-11-25T18:01:36.555Z,7.50
2022-11-25T18:04:16.346Z,8.07
2022-11-25T18:06:44.742Z,8.20
2022-11-25T18:09:13.430Z,4.70
2022-11-25T18:11:58.773Z,4.35
2022-11-25T18:14:31.144Z,6.25
2022-11-25T18:17:28.870Z,6.65
2022-11-25T18:20:08.762Z,6.13
2022-11-25T18:22:35.901Z,7.95
2022-11-25T18:25:08.109Z,7.82
2022-11-25T18:27:37.823Z,3.40
2022-11-25T18:30:07.536Z,6.28
2022-11-25T18:32:37.751Z,4.43
2022-11-25T18:35:17.322Z,4.40
2022-11-25T18:37:44.785Z,5.30
2022-11-25T18:40:13.098Z,4.53
2022-11-25T18:42:41.858Z,5.25
2022-11-25T18:45:20.628Z,4.72
2022-11-25T18:47:47.967Z,8.82
2022-11-25T18:50:17.937Z,6.65
2022-11-25T18:53:19.428Z,5.68
2022-11-25T18:55:49.772Z,6.57
2022-11-25T18:58:27.212Z,4.30
2022-11-25T19:01:02.185Z,4.43
2022-11-25T19:03:29.830Z,4.18
2022-11-25T19:06:01.796Z,6.03
2022-11-25T19:08:38.343Z,4.93
2022-11-25T19:11:16.146Z,5.97
2022-11-25T19:13:50.291Z,7.65
2022-11-25T19:16:29.858Z,4.75
2022-11-25T19:18:57.274Z,6.63
2022-11-25T19:21:31.071Z,6.80
2022-11-25T19:24:01.063Z,7.47
2022-11-25T19:26:35.339Z,8.27
2022-11-25T19:29:10.612Z,7.80
2022-11-25T19:31:38.985Z,8.88
2022-11-25T19:34:08.755Z,12.82
2022-11-25T19:36:46.037Z,8.20
2022-11-25T19:39:19.634Z,9.00
2022-11-25T19:41:50.908Z,9.18
2022-11-25T19:44:23.864Z,7.43
2022-11-25T19:47:14.752Z,11.73
2022-11-25T19:49:50.856Z,11.52
2022-11-25T19:52:30.245Z,8.00
2022-11-25T19:55:01.429Z,9.70
2022-11-25T19:57:29.679Z,13.77
2022-11-25T19:59:56.847Z,11.40
2022-11-25T20:02:27.504Z,11.95
2022-11-25T20:04:59.493Z,9.43
2022-11-25T20:07:27.468Z,13.77
2022-11-25T20:09:56.906Z,11.30
2022-11-25T20:12:30.884Z,9.98
2022-11-25T20:14:57.996Z,8.40
2022-11-25T20:17:31.070Z,8.85
2022-11-25T20:20:03.350Z,10.30
2022-11-25T20:22:37.769Z,8.90
2022-11-25T20:25:25.182Z,12.50
2022-11-25T20:27:58.061Z,11.93
2022-11-25T20:30:28.759Z,9.77
2022-11-25T20:33:04.985Z,9.32
2022-11-25T20:35:32.247Z,11.85
2022-11-25T20:38:18.500Z,10.25
2022-11-25T20:40:54.656Z,8.43
2022-11-25T20:43:43.554Z,11.27
2022-11-25T20:46:24.872Z,7.50
2022-11-25T20:49:32.778Z,8.43
2022-11-25T20:52:03.101Z,9.35
2022-11-25T20:54:34.516Z,11.60
2022-11-25T20:57:10.864Z,8.10
2022-11-25T20:59:47.611Z,6.93
2022-11-25T21:02:21.799Z,9.88
2022-11-25T21:04:56.390Z,7.22
2022-11-25T21:07:27.842Z,7.97
2022-11-25T21:09:55.094Z,8.90
2022-11-25T21:12:37.003Z,6.72
2022-11-25T21:15:17.163Z,7.15
2022-11-25T21:17:47.910Z,9.43
2022-11-25T21:20:24.613Z,6.63
2022-11-25T21:22:58.242Z,8.48
2022-11-25T21:25:32.675Z,8.40
2022-11-25T21:28:06.616Z,9.35
2022-11-25T21:30:37.128Z,7.95
2022-11-25T21:33:09.522Z,8.93
2022-11-25T21:35:40.817Z,9.63
2022-11-25T21:38:19.051Z,7.93
2022-11-25T21:41:11.833Z,8.35
2022-11-25T21:43:42.727Z,7.13
2022-11-25T21:46:30.637Z,8.68
2022-11-25T21:48:57.762Z,8.23
2022-11-25T21:51:25.928Z,11.90
2022-11-25T21:53:56.692Z,7.70
2022-11-25T21:56:38.442Z,7.65
2022-11-25T21:59:09.970Z,8.45
2022-11-25T22:01:37.040Z,6.80
2022-11-25T22:04:24.624Z,8.55
2022-11-25T22:06:51.717Z,13.52
2022-11-25T22:09:22.299Z,10.15
2022-11-25T22:11:51.643Z,10.57
2022-11-25T22:14:29.784Z,9.27
2022-11-25T22:17:15.750Z,9.80
2022-11-25T22:19:42.855Z,11.35
2022-11-25T22:22:14.581Z,11.55
2022-11-25T22:24:42.566Z,12.82
2022-11-25T22:27:23.677Z,8.82
2022-11-25T22:29:51.847Z,15.88
2022-11-25T22:32:19.058Z,6.57
2022-11-25T22:34:46.325Z,7.82
2022-11-25T22:37:21.047Z,10.30
2022-11-25T22:39:48.490Z,12.90
2022-11-25T22:42:30.843Z,7.68
2022-11-25T22:45:00.789Z,11.90
2022-11-25T22:47:30.729Z,12.20
2022-11-25T22:49:58.297Z,9.68
2022-11-25T22:52:28.855Z,12.00
2022-11-25T22:54:59.699Z,10.40
2022-11-25T22:57:26.756Z,11.13
2022-11-25T22:59:53.754Z,11.82
2022-11-25T23:02:29.725Z,12.65
2022-11-25T23:04:56.964Z,9.70
2022-11-25T23:07:24.819Z,6.90
2022-11-25T23:09:52.742Z,5.22
2022-11-25T23:12:20.358Z,11.52
2022-11-25T23:14:47.354Z,7.97
2022-11-25T23:17:25.354Z,12.10
2022-11-25T23:19:53.481Z,8.65
2022-11-25T23:22:20.626Z,8.27
2022-11-25T23:24:48.912Z,7.35
2022-11-25T23:27:16.776Z,8.38
2022-11-25T23:29:45.097Z,9.88
2022-11-25T23:32:18.748Z,16.73
2022-11-25T23:34:46.305Z,11.00
2022-11-25T23:37:14.416Z,11.85
2022-11-25T23:39:41.647Z,9.10
2022-11-25T23:42:19.590Z,6.63
2022-11-25T23:44:47.095Z,7.80
2022-11-25T23:47:20.535Z,13.80
2022-11-25T23:49:53.013Z,13.57
2022-11-25T23:52:26.766Z,15.80
2022-11-25T23:54:54.715Z,13.73
2022-11-25T23:57:24.637Z,11.25
2022-11-25T23:59:52.505Z,15.18
